Time;durP1;ratioP1;P1;durP2;ratioP2;P2;SDS_P1;SDS_P2;PMS_P1;PMS_P2;Temp;Humidity;BMP_temperature;BMP_pressure;BME280_temperature;BME280_humidity;BME280_pressure;Samples;Min_cycle;Max_cycle;Signal;HPM_P1;HPM_P2
2022/08/15 00:02:06;;;;;;;10.05;7.70;;;22.20;65.60;;;;;;5019540;28;20646;-78
2022/08/15 00:04:32;;;;;;;8.32;7.53;;;22.10;64.40;;;;;;4986732;28;20026;-78
2022/08/15 00:06:58;;;;;;;8.43;7.55;;;22.00;67.50;;;;;;5004699;28;20026;-79
2022/08/15 00:09:24;;;;;;;8.32;7.35;;;21.90;67.80;;;;;;4988523;28;20556;-79
2022/08/15 00:11:52;;;;;;;8.07;7.22;;;21.80;66.50;;;;;;5003923;28;20022;-79
2022/08/15 00:14:23;;;;;;;8.02;7.28;;;21.80;71.20;;;;;;5004144;28;20038;-78
2022/08/15 00:16:50;;;;;;;7.43;6.82;;;21.70;68.20;;;;;;4987744;28;20564;-79
2022/08/15 00:19:18;;;;;;;7.90;7.30;;;21.80;66.30;;;;;;5002345;28;20034;-78
2022/08/15 00:21:46;;;;;;;8.43;7.43;;;21.90;66.80;;;;;;5013788;28;20053;-79
2022/08/15 00:24:14;;;;;;;8.93;7.25;;;21.80;65.80;;;;;;5008191;28;20032;-78
2022/08/15 00:26:40;;;;;;;7.80;6.80;;;21.80;65.00;;;;;;5008819;28;20034;-78
2022/08/15 00:29:07;;;;;;;6.85;6.20;;;21.80;65.50;;;;;;4987399;28;20044;-78
2022/08/15 00:31:32;;;;;;;7.13;6.43;;;21.70;66.20;;;;;;4994348;28;20034;-79
2022/08/15 00:33:59;;;;;;;10.73;7.40;;;21.80;67.40;;;;;;5020789;28;20041;-78
2022/08/15 00:36:25;;;;;;;8.43;7.43;;;21.70;67.20;;;;;;4991490;28;20026;-79
2022/08/15 00:38:51;;;;;;;7.35;6.72;;;21.60;66.40;;;;;;5007442;28;20038;-78
2022/08/15 00:44:01;;;;;;;6.55;6.05;;;21.40;70.00;;;;;;5020087;28;20037;-78
2022/08/15 00:46:27;;;;;;;6.95;6.25;;;21.60;67.60;;;;;;5004090;28;20405;-77
2022/08/15 00:48:53;;;;;;;8.48;6.57;;;21.60;65.70;;;;;;4994750;28;20030;-77
2022/08/15 00:51:21;;;;;;;6.25;5.75;;;21.60;66.00;;;;;;5007005;28;20030;-78
2022/08/15 00:54:02;;;;;;;7.10;6.50;;;21.60;65.70;;;;;;5004183;28;20648;-77
2022/08/15 00:56:30;;;;;;;7.55;6.90;;;21.50;67.50;;;;;;5007549;28;20057;-78
2022/08/15 00:58:55;;;;;;;8.23;6.50;;;21.50;70.10;;;;;;5006005;28;20033;-77
2022/08/15 01:01:22;;;;;;;5.88;5.30;;;21.50;68.40;;;;;;5004683;28;20026;-77
2022/08/15 01:03:48;;;;;;;7.78;7.07;;;21.50;67.00;;;;;;4986427;28;20031;-77
2022/08/15 01:06:14;;;;;;;7.32;6.72;;;21.60;67.20;;;;;;4990550;28;20480;-77
2022/08/15 01:08:41;;;;;;;7.10;6.40;;;21.40;70.10;;;;;;5006668;28;20492;-78
2022/08/15 01:11:17;;;;;;;6.25;5.65;;;21.50;68.30;;;;;;5004522;28;20497;-78
2022/08/15 01:13:43;;;;;;;9.57;6.47;;;21.40;69.00;;;;;;4999573;28;20030;-77
2022/08/15 01:16:08;;;;;;;6.60;5.95;;;21.40;69.10;;;;;;5001415;28;20378;-78
2022/08/15 01:18:34;;;;;;;6.45;5.90;;;21.50;70.20;;;;;;4993446;28;20026;-78
2022/08/15 01:21:04;;;;;;;6.47;5.88;;;21.50;69.00;;;;;;5013352;28;20044;-78
2022/08/15 01:23:49;;;;;;;6.40;5.90;;;21.50;69.80;;;;;;5022788;28;20037;-77
2022/08/15 01:26:15;;;;;;;6.63;5.93;;;21.40;70.00;;;;;;5030461;28;20033;-78
2022/08/15 01:28:42;;;;;;;7.72;5.80;;;21.30;68.50;;;;;;5010668;28;20347;-77
2022/08/15 01:31:26;;;;;;;6.70;6.10;;;21.30;70.50;;;;;;4997732;28;20036;-77
2022/08/15 01:33:53;;;;;;;13.63;7.50;;;21.20;69.60;;;;;;4990749;28;20164;-77
2022/08/15 01:36:21;;;;;;;7.35;6.70;;;21.10;73.20;;;;;;4987757;28;20445;-78
2022/08/15 01:38:51;;;;;;;5.97;5.45;;;21.10;70.80;;;;;;5016618;28;20038;-78
2022/08/15 01:41:44;;;;;;;6.57;5.88;;;21.30;69.80;;;;;;4999624;28;20038;-77
2022/08/15 01:44:26;;;;;;;5.55;5.07;;;21.20;70.70;;;;;;5012083;28;20042;-77
2022/08/15 01:47:00;;;;;;;5.05;4.55;;;21.20;70.10;;;;;;5006548;28;20065;-77
2022/08/15 01:49:59;;;;;;;5.88;5.38;;;21.40;69.40;;;;;;5011575;28;20557;-77
2022/08/15 01:52:31;;;;;;;7.35;5.38;;;21.40;69.30;;;;;;5023275;28;20034;-77
2022/08/15 01:54:58;;;;;;;5.20;4.70;;;21.60;69.20;;;;;;4990831;28;20029;-77
2022/08/15 01:57:24;;;;;;;5.70;4.68;;;21.50;68.50;;;;;;4986084;28;20476;-77
2022/08/15 01:59:58;;;;;;;6.93;5.13;;;21.60;67.60;;;;;;5002533;28;20029;-77
2022/08/15 02:02:24;;;;;;;5.57;5.03;;;21.60;67.90;;;;;;5015711;28;20037;-77
2022/08/15 02:04:50;;;;;;;5.70;5.13;;;21.60;68.10;;;;;;4989335;28;20030;-77
2022/08/15 02:07:18;;;;;;;5.70;5.07;;;21.60;67.80;;;;;;5006042;28;20092;-77
2022/08/15 02:09:45;;;;;;;4.95;4.45;;;21.60;67.50;;;;;;5014831;28;20105;-77
2022/08/15 02:12:11;;;;;;;6.97;4.40;;;21.50;67.00;;;;;;5022787;28;20080;-77
2022/08/15 02:14:41;;;;;;;6.72;5.03;;;21.50;67.10;;;;;;5000669;28;20045;-78
2022/08/15 02:17:08;;;;;;;4.72;4.32;;;21.60;67.40;;;;;;5000795;28;20111;-77
2022/08/15 02:19:34;;;;;;;7.53;4.07;;;21.70;67.00;;;;;;4987648;28;20485;-77
2022/08/15 02:21:59;;;;;;;4.65;3.70;;;21.70;65.70;;;;;;5016593;28;20106;-78
2022/08/15 02:24:25;;;;;;;6.18;4.70;;;21.70;64.90;;;;;;5011718;28;20033;-78
2022/08/15 02:26:52;;;;;;;5.22;4.72;;;21.80;65.10;;;;;;5021028;28;20129;-77
2022/08/15 02:29:20;;;;;;;8.70;4.22;;;21.70;64.90;;;;;;5023141;28;20037;-77
2022/08/15 02:31:46;;;;;;;5.30;3.90;;;21.60;64.80;;;;;;4998936;28;20034;-77
2022/08/15 02:34:13;;;;;;;6.07;4.20;;;21.80;64.50;;;;;;5024872;28;20026;-77
2022/08/15 02:36:39;;;;;;;4.20;3.80;;;21.90;64.60;;;;;;5004057;28;20420;-77
2022/08/15 02:39:07;;;;;;;6.07;4.15;;;21.70;64.60;;;;;;4989011;28;20018;-77
2022/08/15 02:41:35;;;;;;;3.92;3.63;;;21.60;64.70;;;;;;4999461;28;20030;-77
2022/08/15 02:44:01;;;;;;;3.95;3.60;;;21.70;64.20;;;;;;5007392;28;20033;-77
2022/08/15 02:46:29;;;;;;;4.32;3.95;;;21.70;65.50;;;;;;5003472;28;20111;-77
2022/08/15 02:48:55;;;;;;;4.50;4.07;;;21.60;65.20;;;;;;5005020;28;20719;-77
2022/08/15 02:51:22;;;;;;;7.70;4.47;;;21.60;65.70;;;;;;5004206;28;20022;-77
2022/08/15 02:53:49;;;;;;;5.88;3.58;;;21.50;64.10;;;;;;5003197;28;20041;-77
2022/08/15 02:56:16;;;;;;;5.03;4.10;;;21.60;64.00;;;;;;4988724;28;20045;-77
2022/08/15 02:58:43;;;;;;;5.28;3.88;;;21.60;64.10;;;;;;4989079;28;20541;-77
2022/08/15 03:01:09;;;;;;;5.88;4.05;;;21.70;64.50;;;;;;4988414;28;20104;-77
2022/08/15 03:03:39;;;;;;;4.20;3.80;;;21.70;64.50;;;;;;4987160;28;20048;-77
2022/08/15 03:06:09;;;;;;;6.88;3.60;;;21.50;65.10;;;;;;4988972;28;20061;-77
2022/08/15 03:08:35;;;;;;;7.55;3.63;;;21.50;64.70;;;;;;4990008;28;20489;-77
2022/08/15 03:11:02;;;;;;;5.25;3.70;;;21.30;65.80;;;;;;4975059;28;20402;-77
2022/08/15 03:13:28;;;;;;;4.05;3.65;;;21.30;64.60;;;;;;5017281;28;20188;-77
2022/08/15 03:15:55;;;;;;;4.82;3.63;;;21.30;64.90;;;;;;5011734;28;20155;-77
2022/08/15 03:18:21;;;;;;;7.43;3.70;;;21.30;66.90;;;;;;5006430;28;20401;-77
2022/08/15 03:20:51;;;;;;;6.60;3.78;;;21.20;66.70;;;;;;5009670;28;20101;-77
2022/08/15 03:23:17;;;;;;;5.35;3.58;;;21.30;64.80;;;;;;4989305;28;20076;-77
2022/08/15 03:25:45;;;;;;;7.75;3.97;;;21.40;65.00;;;;;;5003425;28;20644;-77
2022/08/15 03:28:10;;;;;;;8.05;3.60;;;21.30;65.00;;;;;;4991033;28;20030;-78
2022/08/15 03:30:37;;;;;;;7.88;3.42;;;21.30;64.90;;;;;;5004078;28;20030;-77
2022/08/15 03:33:03;;;;;;;6.55;3.40;;;21.30;63.70;;;;;;4989576;28;20116;-77
2022/08/15 03:35:31;;;;;;;8.35;3.45;;;21.30;65.10;;;;;;4995202;28;20057;-77
2022/08/15 03:37:57;;;;;;;4.90;3.17;;;21.20;65.70;;;;;;5006285;28;20113;-77
2022/08/15 03:40:22;;;;;;;5.38;3.88;;;21.40;64.20;;;;;;4989122;28;20180;-77
2022/08/15 03:42:59;;;;;;;5.28;3.67;;;21.30;63.80;;;;;;4972659;28;20117;-77
2022/08/15 03:45:25;;;;;;;6.13;3.58;;;21.30;65.10;;;;;;5015872;28;20061;-78
2022/08/15 03:47:51;;;;;;;7.03;3.83;;;21.30;64.00;;;;;;5000167;28;20034;-78
2022/08/15 03:50:16;;;;;;;5.22;3.28;;;21.20;66.50;;;;;;5006486;28;20506;-77
2022/08/15 03:52:55;;;;;;;3.47;3.13;;;21.20;66.00;;;;;;5025074;28;20033;-77
2022/08/15 03:55:22;;;;;;;6.88;4.10;;;21.30;64.30;;;;;;5003774;28;20037;-77
2022/08/15 03:57:47;;;;;;;5.03;3.33;;;21.30;64.50;;;;;;5003296;28;20072;-77
2022/08/15 04:00:14;;;;;;;5.47;2.80;;;21.50;63.70;;;;;;5007634;28;20064;-77
2022/08/15 04:02:40;;;;;;;5.60;2.88;;;21.40;63.30;;;;;;5023158;28;20563;-77
2022/08/15 04:05:07;;;;;;;8.35;3.60;;;21.40;63.60;;;;;;5006595;28;20125;-77
2022/08/15 04:07:35;;;;;;;4.78;3.83;;;21.40;63.50;;;;;;5023095;28;20030;-77
2022/08/15 04:10:03;;;;;;;6.47;3.47;;;21.40;65.70;;;;;;5001390;28;20037;-78
2022/08/15 04:12:35;;;;;;;2.88;2.60;;;21.30;65.10;;;;;;4989097;28;20461;-77
2022/08/15 04:15:03;;;;;;;5.57;3.55;;;21.40;64.40;;;;;;5017339;28;20037;-77
2022/08/15 04:17:28;;;;;;;7.30;3.13;;;21.50;64.10;;;;;;4990589;28;20041;-78
2022/08/15 04:19:54;;;;;;;3.53;3.08;;;21.50;63.60;;;;;;4989241;28;20184;-77
2022/08/15 04:22:34;;;;;;;4.30;2.70;;;21.50;63.20;;;;;;5005661;28;20546;-76
2022/08/15 04:25:05;;;;;;;5.47;2.97;;;21.50;63.70;;;;;;5005493;28;20040;-77
2022/08/15 04:27:30;;;;;;;3.25;2.60;;;21.60;63.60;;;;;;4991228;28;20041;-75
2022/08/15 04:29:56;;;;;;;6.97;3.00;;;21.50;63.70;;;;;;4975044;28;20030;-79
2022/08/15 04:32:23;;;;;;;3.20;2.67;;;21.50;64.30;;;;;;5001957;28;20038;-78
2022/08/15 04:34:49;;;;;;;4.95;2.78;;;21.60;64.90;;;;;;5004546;28;20140;-78
2022/08/15 04:37:14;;;;;;;3.78;2.75;;;21.60;64.80;;;;;;5020301;28;20176;-78
2022/08/15 04:39:40;;;;;;;3.65;2.88;;;21.50;64.00;;;;;;5006021;28;20030;-78
2022/08/15 04:42:06;;;;;;;7.40;2.85;;;21.50;64.60;;;;;;4992659;28;20680;-78
2022/08/15 04:44:32;;;;;;;10.32;3.67;;;21.50;65.00;;;;;;5027777;28;20112;-77
2022/08/15 04:46:57;;;;;;;4.30;2.67;;;21.40;65.20;;;;;;5010568;28;20240;-77
2022/08/15 04:49:23;;;;;;;5.22;2.90;;;21.30;67.20;;;;;;5022876;28;20037;-77
2022/08/15 04:51:49;;;;;;;8.45;2.75;;;21.40;66.00;;;;;;5006151;28;20033;-77
2022/08/15 04:54:16;;;;;;;3.60;2.83;;;21.50;64.20;;;;;;5002789;28;20401;-78
2022/08/15 04:56:42;;;;;;;5.13;2.63;;;21.50;63.80;;;;;;5006094;28;20033;-77
2022/08/15 04:59:08;;;;;;;5.97;3.55;;;21.50;63.60;;;;;;5003475;28;20034;-77
2022/08/15 05:01:33;;;;;;;6.20;3.38;;;21.60;64.90;;;;;;4993396;28;20018;-77
2022/08/15 05:03:59;;;;;;;2.83;2.50;;;21.50;65.20;;;;;;4988489;28;20029;-77
2022/08/15 05:06:24;;;;;;;3.53;2.67;;;21.60;63.60;;;;;;5004881;28;20029;-77
2022/08/15 05:08:50;;;;;;;5.95;2.92;;;21.70;63.30;;;;;;5002010;28;20034;-78
2022/08/15 05:11:17;;;;;;;6.78;2.83;;;21.70;64.60;;;;;;5025993;28;20033;-78
2022/08/15 05:13:43;;;;;;;9.35;3.03;;;21.60;66.30;;;;;;5019848;28;20128;-77
2022/08/15 05:16:08;;;;;;;5.78;2.85;;;21.70;64.20;;;;;;4996156;28;20125;-77
2022/08/15 05:18:36;;;;;;;6.70;2.95;;;21.70;63.90;;;;;;5010045;28;20036;-77
2022/08/15 05:21:01;;;;;;;3.63;2.70;;;21.70;65.00;;;;;;5008088;28;20041;-77
2022/08/15 05:23:27;;;;;;;4.82;2.30;;;21.70;64.70;;;;;;5026144;28;20036;-77
2022/08/15 05:25:55;;;;;;;3.00;2.50;;;21.70;63.90;;;;;;5007866;28;20030;-77
2022/08/15 05:28:21;;;;;;;5.18;2.83;;;21.80;63.30;;;;;;5029649;28;20033;-77
2022/08/15 05:30:47;;;;;;;4.40;2.58;;;21.90;63.30;;;;;;5015627;28;20132;-77
2022/08/15 05:33:14;;;;;;;6.05;3.08;;;21.90;64.00;;;;;;4991723;28;20033;-77
2022/08/15 05:35:49;;;;;;;4.50;2.83;;;21.90;64.10;;;;;;5005630;28;20099;-77
2022/08/15 05:38:23;;;;;;;3.97;2.30;;;21.90;64.10;;;;;;5024872;28;20039;-77
2022/08/15 05:41:00;;;;;;;7.25;2.90;;;21.90;64.00;;;;;;5022346;28;20061;-77
2022/08/15 05:43:47;;;;;;;4.13;2.35;;;21.90;64.30;;;;;;5013503;28;20462;-77
2022/08/15 05:46:23;;;;;;;4.38;2.50;;;21.90;64.50;;;;;;5039261;28;20033;-77
2022/08/15 05:49:10;;;;;;;2.88;2.50;;;22.00;64.30;;;;;;5018662;28;20034;-77
2022/08/15 05:51:46;;;;;;;7.30;2.58;;;22.00;65.10;;;;;;5021140;28;20052;-76
2022/08/15 05:54:31;;;;;;;5.00;2.00;;;22.00;64.70;;;;;;5023424;28;20068;-76
2022/08/15 05:57:19;;;;;;;5.45;2.33;;;22.00;65.00;;;;;;5027600;28;20088;-76
2022/08/15 05:59:50;;;;;;;4.25;2.50;;;22.10;65.10;;;;;;5002910;28;20030;-76
2022/08/15 06:02:28;;;;;;;2.75;2.25;;;22.10;64.60;;;;;;5003808;28;20445;-76
2022/08/15 06:05:01;;;;;;;2.65;2.40;;;22.20;64.40;;;;;;4976108;28;20026;-76
2022/08/15 06:07:26;;;;;;;6.20;2.20;;;22.30;64.50;;;;;;4993849;28;20597;-77
2022/08/15 06:10:02;;;;;;;5.28;2.45;;;22.30;64.60;;;;;;5013661;28;20013;-76
2022/08/15 06:12:42;;;;;;;3.15;2.13;;;22.30;64.60;;;;;;5017952;28;20041;-76
2022/08/15 06:15:19;;;;;;;4.93;2.40;;;22.40;64.60;;;;;;4990180;28;20041;-76
2022/08/15 06:17:52;;;;;;;3.30;2.17;;;22.50;64.90;;;;;;5002256;28;20525;-76
2022/08/15 06:20:19;;;;;;;5.43;2.20;;;22.50;64.70;;;;;;5002648;28;20030;-77
2022/08/15 06:22:53;;;;;;;2.67;2.10;;;22.50;64.30;;;;;;5002695;28;20041;-76
2022/08/15 06:25:51;;;;;;;4.90;2.20;;;22.60;64.60;;;;;;5007078;28;20018;-76
2022/08/15 06:28:19;;;;;;;4.43;2.17;;;22.60;64.70;;;;;;5002240;28;20045;-76
2022/08/15 06:30:55;;;;;;;3.97;2.38;;;22.80;64.30;;;;;;5006237;28;20232;-77
2022/08/15 06:33:44;;;;;;;3.40;2.10;;;22.80;64.30;;;;;;5024023;28;20033;-76
2022/08/15 06:36:30;;;;;;;8.07;2.42;;;22.90;64.40;;;;;;5018242;28;20046;-77
2022/08/15 06:39:04;;;;;;;6.60;2.35;;;22.90;64.00;;;;;;5015490;28;20100;-76
2022/08/15 06:41:53;;;;;;;4.15;2.10;;;23.00;64.30;;;;;;5011734;28;20092;-77
2022/08/15 06:44:19;;;;;;;15.55;2.58;;;23.00;64.70;;;;;;5006936;28;20063;-77
2022/08/15 06:46:44;;;;;;;4.38;2.05;;;23.10;64.60;;;;;;5000945;28;20033;-77
2022/08/15 06:49:11;;;;;;;3.88;2.20;;;23.20;64.00;;;;;;5002106;28;20030;-77
2022/08/15 06:51:38;;;;;;;3.22;2.40;;;23.20;64.00;;;;;;4986973;28;20038;-76
2022/08/15 06:54:14;;;;;;;3.97;2.13;;;23.30;64.00;;;;;;4987040;28;20030;-76
2022/08/15 06:57:04;;;;;;;5.40;2.45;;;23.40;63.50;;;;;;4990479;28;20120;-77
2022/08/15 06:59:36;;;;;;;2.10;1.90;;;23.40;63.70;;;;;;5008930;28;20172;-77
2022/08/15 07:02:13;;;;;;;4.97;2.10;;;23.50;63.50;;;;;;5009409;28;20112;-77
2022/08/15 07:05:07;;;;;;;3.88;1.92;;;23.50;63.30;;;;;;5026497;28;20048;-77
2022/08/15 07:07:47;;;;;;;4.70;2.38;;;23.60;63.20;;;;;;4982771;28;20159;-77
2022/08/15 07:10:29;;;;;;;3.50;2.08;;;23.60;63.50;;;;;;4991609;28;20559;-78
2022/08/15 07:13:24;;;;;;;3.03;2.50;;;23.60;63.10;;;;;;4991308;28;20041;-78
2022/08/15 07:15:57;;;;;;;3.40;2.03;;;23.70;63.30;;;;;;4966171;28;20073;-78
2022/08/15 07:18:47;;;;;;;3.28;2.05;;;23.70;62.80;;;;;;4988701;28;20041;-78
2022/08/15 07:21:20;;;;;;;3.47;1.92;;;23.70;63.30;;;;;;4966541;28;20061;-78
2022/08/15 07:24:31;;;;;;;3.30;2.15;;;23.70;63.60;;;;;;4985821;28;20029;-76
2022/08/15 07:27:04;;;;;;;8.02;2.70;;;23.70;63.10;;;;;;4983736;28;20176;-78
2022/08/15 07:29:36;;;;;;;4.28;1.85;;;23.80;63.50;;;;;;5010832;28;20068;-78
2022/08/15 07:32:25;;;;;;;2.55;2.13;;;23.80;63.10;;;;;;4991973;28;20042;-78
2022/08/15 07:35:22;;;;;;;5.00;2.10;;;23.80;63.50;;;;;;5009743;28;20124;-78
2022/08/15 07:37:48;;;;;;;3.60;2.13;;;23.90;63.00;;;;;;4988948;28;20489;-78
2022/08/15 07:40:17;;;;;;;3.53;2.30;;;23.90;63.20;;;;;;5021656;28;20405;-78
2022/08/15 07:42:43;;;;;;;6.00;1.98;;;24.00;63.60;;;;;;5016248;28;20030;-78
2022/08/15 07:45:20;;;;;;;7.13;2.30;;;24.10;63.30;;;;;;5006263;28;20104;-77
2022/08/15 07:47:54;;;;;;;4.38;2.25;;;24.10;63.70;;;;;;5007344;28;20559;-78
2022/08/15 07:50:23;;;;;;;4.47;2.15;;;24.20;63.30;;;;;;5005301;28;20128;-78
2022/08/15 07:52:56;;;;;;;5.07;2.47;;;24.30;63.60;;;;;;5036426;28;20397;-78
2022/08/15 07:55:22;;;;;;;4.40;2.28;;;24.50;63.60;;;;;;4994130;28;20042;-78
2022/08/15 07:58:02;;;;;;;3.55;2.10;;;24.50;63.10;;;;;;4990216;28;20040;-79
2022/08/15 08:00:28;;;;;;;6.32;2.38;;;24.60;62.90;;;;;;5007153;28;20036;-78
2022/08/15 08:03:08;;;;;;;5.43;2.45;;;24.70;63.80;;;;;;4986653;28;20034;-78
2022/08/15 08:05:42;;;;;;;4.40;1.95;;;24.80;63.40;;;;;;5014955;28;20026;-78
2022/08/15 08:08:08;;;;;;;5.03;2.83;;;24.80;63.40;;;;;;4993685;28;20042;-78
2022/08/15 08:10:48;;;;;;;4.70;2.17;;;25.00;62.90;;;;;;5002536;28;20048;-78
2022/08/15 08:13:28;;;;;;;2.60;2.10;;;25.20;64.20;;;;;;5013291;28;20065;-78
2022/08/15 08:16:05;;;;;;;4.63;2.38;;;25.20;62.70;;;;;;5003049;28;20042;-79
2022/08/15 08:18:55;;;;;;;4.32;2.50;;;25.40;63.30;;;;;;5034482;28;20049;-79
2022/08/15 08:21:29;;;;;;;2.28;1.85;;;25.60;62.60;;;;;;5036546;28;20077;-79
2022/08/15 08:23:59;;;;;;;3.53;2.13;;;25.70;62.20;;;;;;5007993;28;20674;-79
2022/08/15 08:26:34;;;;;;;3.88;2.58;;;25.90;62.30;;;;;;4992044;28;20083;-79
2022/08/15 08:29:06;;;;;;;3.03;2.08;;;25.80;61.70;;;;;;5002708;28;20556;-79
2022/08/15 08:32:17;;;;;;;6.38;2.38;;;25.80;62.40;;;;;;5006180;28;20052;-79
2022/08/15 08:34:50;;;;;;;5.35;2.47;;;26.10;62.70;;;;;;5005934;28;20033;-79
2022/08/15 08:37:38;;;;;;;4.05;2.20;;;26.20;61.60;;;;;;4990409;28;20542;-79
2022/08/15 08:43:13;;;;;;;4.70;2.28;;;26.30;61.70;;;;;;5019655;28;20040;-79
2022/08/15 08:46:20;;;;;;;6.63;2.97;;;26.50;62.10;;;;;;5014566;28;20033;-79
2022/08/15 08:49:24;;;;;;;4.18;2.40;;;26.60;61.60;;;;;;4946900;28;20035;-80
2022/08/15 08:52:08;;;;;;;3.55;2.58;;;26.70;62.40;;;;;;5003699;28;20041;-79
2022/08/15 08:54:50;;;;;;;4.50;2.45;;;26.80;62.00;;;;;;5003424;28;20075;-78
2022/08/15 08:57:17;;;;;;;4.05;2.65;;;26.80;60.70;;;;;;5004461;28;20026;-80
2022/08/15 09:00:09;;;;;;;4.28;2.50;;;26.80;61.80;;;;;;4981872;28;20363;-79
2022/08/15 09:02:58;;;;;;;8.45;3.13;;;26.90;61.00;;;;;;5004887;28;20026;-79
2022/08/15 09:05:44;;;;;;;6.75;2.60;;;27.10;62.20;;;;;;5002780;28;20026;-78
2022/08/15 09:08:13;;;;;;;4.72;2.72;;;27.00;60.70;;;;;;5000811;28;20089;-79
2022/08/15 09:10:40;;;;;;;5.10;2.33;;;27.10;61.80;;;;;;5004325;28;20128;-79
2022/08/15 09:15:53;;;;;;;3.63;2.50;;;27.30;59.90;;;;;;5021391;28;20063;-79
2022/08/15 09:18:21;;;;;;;5.45;2.70;;;27.30;60.70;;;;;;5000499;28;20041;-79
2022/08/15 09:20:48;;;;;;;4.18;2.92;;;27.40;60.70;;;;;;5007270;28;20048;-79
2022/08/15 09:23:14;;;;;;;4.00;2.40;;;27.60;61.20;;;;;;4990005;28;20490;-79
2022/08/15 09:26:06;;;;;;;2.85;2.35;;;27.70;60.70;;;;;;4979898;28;20038;-80
2022/08/15 09:28:37;;;;;;;4.97;2.63;;;27.60;60.80;;;;;;5024589;28;20029;-80
2022/08/15 09:31:14;;;;;;;5.00;2.30;;;27.70;59.50;;;;;;4993191;28;20108;-79
2022/08/15 09:33:56;;;;;;;5.78;2.45;;;27.70;59.70;;;;;;4990303;28;20519;-79
2022/08/15 09:37:00;;;;;;;5.38;2.38;;;27.80;59.30;;;;;;4983492;28;20026;-79
2022/08/15 09:39:47;;;;;;;7.30;3.25;;;27.80;59.30;;;;;;5024201;28;20034;-79
2022/08/15 09:42:40;;;;;;;4.90;2.97;;;27.80;59.70;;;;;;4991804;28;20041;-80
2022/08/15 09:45:20;;;;;;;3.60;2.35;;;27.80;58.60;;;;;;4999357;28;20026;-79
2022/08/15 09:48:33;;;;;;;6.43;2.80;;;27.80;59.00;;;;;;5003344;28;20038;-79
2022/08/15 09:51:21;;;;;;;4.82;3.08;;;27.90;59.00;;;;;;4950326;28;20031;-79
2022/08/15 09:54:05;;;;;;;4.43;2.67;;;28.00;59.20;;;;;;4948618;28;20035;-79
2022/08/15 09:56:33;;;;;;;5.05;2.63;;;27.90;58.90;;;;;;4994462;28;20497;-79
2022/08/15 09:59:09;;;;;;;3.97;2.50;;;27.90;59.00;;;;;;5022507;28;20112;-79
2022/08/15 10:01:48;;;;;;;6.45;2.20;;;28.10;58.90;;;;;;5019999;28;20033;-79
2022/08/15 10:04:15;;;;;;;6.93;2.92;;;28.20;59.20;;;;;;5003603;28;20042;-79
2022/08/15 10:07:04;;;;;;;3.58;2.55;;;28.30;59.60;;;;;;5003812;28;20041;-80
2022/08/15 10:09:32;;;;;;;6.30;3.15;;;28.50;59.40;;;;;;4989668;28;20264;-79
2022/08/15 10:12:06;;;;;;;5.07;3.25;;;28.50;59.10;;;;;;4990420;28;20453;-79
2022/08/15 10:14:47;;;;;;;5.05;2.90;;;28.40;58.30;;;;;;5036067;28;20080;-79
2022/08/15 10:17:40;;;;;;;6.78;3.40;;;28.50;58.80;;;;;;5038408;28;20071;-79
2022/08/15 10:20:15;;;;;;;3.33;2.63;;;28.40;58.50;;;;;;4988839;28;20033;-78
2022/08/15 10:22:50;;;;;;;6.05;2.90;;;28.50;59.30;;;;;;5018937;28;20077;-78
2022/08/15 10:25:24;;;;;;;5.40;2.75;;;28.60;58.50;;;;;;5009023;28;20026;-78
2022/08/15 10:28:05;;;;;;;7.10;2.97;;;28.00;59.00;;;;;;5004907;28;20362;-78
2022/08/15 10:30:36;;;;;;;5.85;3.10;;;27.90;59.50;;;;;;4308191;28;10000618;-78
2022/08/15 10:33:26;;;;;;;6.35;2.85;;;28.50;60.20;;;;;;4964823;28;20022;-78
2022/08/15 10:35:53;;;;;;;3.88;3.13;;;28.80;58.40;;;;;;4981728;28;20044;-78
2022/08/15 10:38:22;;;;;;;4.30;3.30;;;28.80;57.80;;;;;;4984327;28;20046;-78
2022/08/15 10:41:21;;;;;;;7.57;3.40;;;29.30;59.20;;;;;;5000164;28;20079;-78
2022/08/15 10:44:09;;;;;;;2.65;2.40;;;29.40;57.00;;;;;;4986783;28;20084;-78
2022/08/15 10:47:00;;;;;;;6.70;3.03;;;29.40;57.00;;;;;;4996263;28;20160;-78
2022/08/15 10:50:09;;;;;;;9.73;3.05;;;29.40;58.30;;;;;;4987147;28;20038;-79
2022/08/15 10:53:00;;;;;;;8.63;3.60;;;30.10;58.00;;;;;;4968475;28;20413;-78
2022/08/15 10:55:35;;;;;;;5.15;3.00;;;29.60;56.60;;;;;;4991295;28;20038;-78
2022/08/15 10:58:23;;;;;;;6.28;3.13;;;29.80;57.80;;;;;;4969138;28;20449;-78
2022/08/15 11:01:12;;;;;;;6.47;2.78;;;30.00;57.00;;;;;;4960592;28;20057;-78
2022/08/15 11:03:48;;;;;;;3.65;2.83;;;29.90;56.60;;;;;;5001883;28;20030;-78
2022/08/15 11:06:17;;;;;;;7.70;3.25;;;29.60;57.60;;;;;;4988438;28;20041;-78
2022/08/15 11:08:46;;;;;;;8.00;3.67;;;29.30;57.40;;;;;;4988769;28;20034;-78
2022/08/15 11:11:11;;;;;;;2.97;2.58;;;29.60;57.30;;;;;;4995813;28;20038;-78
2022/08/15 11:13:37;;;;;;;5.20;2.90;;;29.60;57.20;;;;;;5003094;28;20048;-78
2022/08/15 11:16:14;;;;;;;11.57;3.60;;;29.60;57.40;;;;;;4969409;28;20037;-78
2022/08/15 11:18:49;;;;;;;5.90;3.08;;;30.40;57.00;;;;;;4971049;28;20053;-78
2022/08/15 11:21:28;;;;;;;6.45;3.15;;;30.90;56.50;;;;;;4975840;28;20045;-79
2022/08/15 11:23:57;;;;;;;3.28;2.53;;;31.10;56.30;;;;;;5014553;28;20037;-78
2022/08/15 11:26:27;;;;;;;7.00;4.30;;;31.30;55.70;;;;;;5000940;28;20033;-78
2022/08/15 11:29:15;;;;;;;5.97;2.70;;;31.30;55.00;;;;;;5022624;28;20156;-78
2022/08/15 11:31:55;;;;;;;5.85;3.47;;;31.00;55.50;;;;;;4996274;28;20033;-78
2022/08/15 11:34:27;;;;;;;5.40;3.55;;;31.00;55.80;;;;;;4996573;28;20041;-77
2022/08/15 11:36:58;;;;;;;6.57;3.20;;;31.30;55.10;;;;;;4971915;28;20117;-78
2022/08/15 11:39:26;;;;;;;6.00;3.08;;;31.00;55.60;;;;;;5018361;28;20029;-78
2022/08/15 11:41:58;;;;;;;5.05;3.88;;;31.20;55.90;;;;;;5007668;28;20034;-78
2022/08/15 11:44:34;;;;;;;6.75;3.08;;;31.40;55.70;;;;;;5003221;28;20029;-78
2022/08/15 11:47:00;;;;;;;9.43;3.88;;;31.70;54.40;;;;;;5001125;28;20030;-78
2022/08/15 11:49:32;;;;;;;4.25;2.90;;;31.60;55.50;;;;;;4991471;28;20031;-78
2022/08/15 11:52:00;;;;;;;4.63;2.92;;;31.90;54.40;;;;;;5000485;28;20076;-77
2022/08/15 11:54:26;;;;;;;6.82;3.65;;;31.50;54.40;;;;;;5003846;28;20025;-77
2022/08/15 11:57:02;;;;;;;2.83;2.45;;;31.20;55.60;;;;;;4988739;28;20573;-78
2022/08/15 11:59:29;;;;;;;6.78;2.92;;;31.50;55.20;;;;;;4993920;28;20073;-77
2022/08/15 12:02:06;;;;;;;3.92;2.65;;;31.20;54.70;;;;;;5011229;28;20038;-78
2022/08/15 12:04:33;;;;;;;7.63;3.67;;;30.70;55.30;;;;;;5024267;28;20433;-78
2022/08/15 12:07:13;;;;;;;3.80;2.65;;;31.00;54.90;;;;;;5022751;28;20044;-77
2022/08/15 12:09:39;;;;;;;9.00;3.00;;;30.80;55.20;;;;;;5000471;28;20037;-78
2022/08/15 12:12:14;;;;;;;6.28;3.15;;;30.40;55.90;;;;;;5003588;28;20430;-78
2022/08/15 12:14:45;;;;;;;6.35;3.13;;;31.00;55.00;;;;;;5013480;28;20084;-78
2022/08/15 12:17:23;;;;;;;5.90;2.90;;;30.30;55.90;;;;;;5014818;28;20160;-77
2022/08/15 12:19:50;;;;;;;6.72;4.00;;;30.40;55.70;;;;;;5004471;28;20057;-77
2022/08/15 12:22:40;;;;;;;5.38;2.95;;;30.50;56.10;;;;;;4990937;28;20029;-77
2022/08/15 12:25:06;;;;;;;4.65;2.78;;;30.80;54.90;;;;;;5021763;28;20033;-77
2022/08/15 12:27:35;;;;;;;8.30;3.42;;;30.50;55.60;;;;;;5002893;28;20033;-77
2022/08/15 12:30:05;;;;;;;8.32;3.45;;;30.30;56.60;;;;;;5023454;28;20796;-77
2022/08/15 12:32:32;;;;;;;3.92;2.92;;;30.20;56.00;;;;;;5001003;28;20051;-77
2022/08/15 12:34:57;;;;;;;7.68;3.45;;;30.40;56.70;;;;;;5002153;28;20482;-78
2022/08/15 12:37:24;;;;;;;9.05;3.33;;;30.40;56.20;;;;;;4991867;28;20029;-77
2022/08/15 12:39:58;;;;;;;7.28;3.50;;;31.00;56.90;;;;;;4987286;28;20390;-77
2022/08/15 12:42:28;;;;;;;7.18;3.25;;;31.20;55.20;;;;;;5006513;28;20470;-77
2022/08/15 12:44:55;;;;;;;6.00;3.72;;;31.40;55.50;;;;;;4990317;28;20023;-77
2022/08/15 12:47:22;;;;;;;7.95;3.72;;;31.50;55.00;;;;;;4988918;28;20033;-77
2022/08/15 12:49:49;;;;;;;6.57;3.40;;;31.20;54.30;;;;;;4989694;28;20371;-78
2022/08/15 12:52:15;;;;;;;3.28;2.92;;;30.70;55.20;;;;;;4989177;28;20029;-77
2022/08/15 12:54:41;;;;;;;9.80;3.60;;;31.00;55.10;;;;;;5007129;28;20041;-77
2022/08/15 12:57:07;;;;;;;7.60;3.10;;;31.20;55.30;;;;;;4975010;28;20026;-77
2022/08/15 12:59:33;;;;;;;8.10;3.00;;;31.20;54.10;;;;;;5007232;28;20033;-78
2022/08/15 13:01:58;;;;;;;6.30;3.15;;;30.80;55.40;;;;;;5006891;28;20076;-77
2022/08/15 13:04:25;;;;;;;4.43;3.22;;;30.70;56.00;;;;;;4992350;28;20393;-77
2022/08/15 13:06:56;;;;;;;5.80;3.53;;;30.20;55.90;;;;;;5007742;28;20084;-77
2022/08/15 13:09:23;;;;;;;5.10;3.53;;;30.20;56.10;;;;;;5026737;28;20047;-78
2022/08/15 13:11:48;;;;;;;8.50;4.18;;;29.90;56.40;;;;;;5026542;28;20480;-78
2022/08/15 13:14:16;;;;;;;3.67;2.88;;;29.90;56.80;;;;;;4977170;28;20030;-78
2022/08/15 13:16:42;;;;;;;7.18;3.50;;;30.10;56.20;;;;;;4986396;28;20038;-78
2022/08/15 13:19:09;;;;;;;3.92;3.10;;;29.50;57.10;;;;;;5004768;28;20034;-79
2022/08/15 13:24:19;;;;;;;8.60;3.97;;;29.30;57.60;;;;;;5008509;28;20053;-78
2022/08/15 13:26:45;;;;;;;4.97;3.85;;;29.30;57.70;;;;;;5003109;28;20445;-78